sensor_id;sensor_type;location;lat;lon;timestamp;temperature;humidity
2611;DHT22;5612;51.134;17.058;2022-11-20T00:00:02;-2.80;1.00
2611;DHT22;5612;51.134;17.058;2022-11-20T00:02:30;-2.80;1.90
2611;DHT22;5612;51.134;17.058;2022-11-20T00:04:59;-2.80;16.20
2611;DHT22;5612;51.134;17.058;2022-11-20T00:07:28;-2.80;99.90
2611;DHT22;5612;51.134;17.058;2022-11-20T00:09:57;-2.90;1.00
2611;DHT22;5612;51.134;17.058;2022-11-20T00:12:26;-2.90;99.90
2611;DHT22;5612;51.134;17.058;2022-11-20T00:14:55;-2.90;99.90
2611;DHT22;5612;51.134;17.058;2022-11-20T00:17:25;-2.90;99.90
2611;DHT22;5612;51.134;17.058;2022-11-20T00:19:54;-2.90;99.90
2611;DHT22;5612;51.134;17.058;2022-11-20T00:22:23;-2.90;99.90
2611;DHT22;5612;51.134;17.058;2022-11-20T00:24:51;-2.90;99.90
2611;DHT22;5612;51.134;17.058;2022-11-20T00:27:20;-3.00;99.90
2611;DHT22;5612;51.134;17.058;2022-11-20T00:29:49;-3.00;1.00
2611;DHT22;5612;51.134;17.058;2022-11-20T00:32:17;-3.00;99.90
2611;DHT22;5612;51.134;17.058;2022-11-20T00:34:47;-3.00;1.00
2611;DHT22;5612;51.134;17.058;2022-11-20T00:37:16;-3.10;1.00
2611;DHT22;5612;51.134;17.058;2022-11-20T00:39:45;-3.30;99.90
2611;DHT22;5612;51.134;17.058;2022-11-20T00:42:14;-3.40;99.90
2611;DHT22;5612;51.134;17.058;2022-11-20T00:44:42;-3.40;1.00
2611;DHT22;5612;51.134;17.058;2022-11-20T00:47:11;-3.40;1.00
2611;DHT22;5612;51.134;17.058;2022-11-20T00:49:40;-3.40;93.80
2611;DHT22;5612;51.134;17.058;2022-11-20T00:52:10;-3.40;99.90
2611;DHT22;5612;51.134;17.058;2022-11-20T00:54:38;-3.50;99.90
2611;DHT22;5612;51.134;17.058;2022-11-20T00:57:07;-3.60;99.90
2611;DHT22;5612;51.134;17.058;2022-11-20T00:59:36;-3.50;99.90
2611;DHT22;5612;51.134;17.058;2022-11-20T01:02:04;-3.40;99.90
2611;DHT22;5612;51.134;17.058;2022-11-20T01:04:33;-3.40;99.90
2611;DHT22;5612;51.134;17.058;2022-11-20T01:07:02;-3.30;99.90
2611;DHT22;5612;51.134;17.058;2022-11-20T01:09:32;-3.40;1.00
2611;DHT22;5612;51.134;17.058;2022-11-20T01:12:01;-3.40;99.90
2611;DHT22;5612;51.134;17.058;2022-11-20T01:14:30;-3.40;99.90
2611;DHT22;5612;51.134;17.058;2022-11-20T01:16:58;-3.30;99.90
2611;DHT22;5612;51.134;17.058;2022-11-20T01:19:27;-3.30;99.90
2611;DHT22;5612;51.134;17.058;2022-11-20T01:21:56;-3.30;99.90
2611;DHT22;5612;51.134;17.058;2022-11-20T01:24:24;-3.30;1.00
2611;DHT22;5612;51.134;17.058;2022-11-20T01:26:54;-3.20;1.00
2611;DHT22;5612;51.134;17.058;2022-11-20T01:29:24;-3.10;99.90
2611;DHT22;5612;51.134;17.058;2022-11-20T01:31:53;-3.10;99.90
2611;DHT22;5612;51.134;17.058;2022-11-20T01:34:22;-3.10;1.00
2611;DHT22;5612;51.134;17.058;2022-11-20T01:36:52;-3.10;1.00
2611;DHT22;5612;51.134;17.058;2022-11-20T01:39:22;-3.10;99.90
2611;DHT22;5612;51.134;17.058;2022-11-20T01:41:54;-3.10;99.90
2611;DHT22;5612;51.134;17.058;2022-11-20T01:44:55;-3.10;99.90
2611;DHT22;5612;51.134;17.058;2022-11-20T01:47:32;-3.20;99.90
2611;DHT22;5612;51.134;17.058;2022-11-20T01:50:05;-3.20;99.90
2611;DHT22;5612;51.134;17.058;2022-11-20T01:52:38;-3.40;1.00
2611;DHT22;5612;51.134;17.058;2022-11-20T01:55:10;-3.60;1.00
2611;DHT22;5612;51.134;17.058;2022-11-20T01:57:41;-3.80;99.90
2611;DHT22;5612;51.134;17.058;2022-11-20T02:00:12;-3.80;35.40
2611;DHT22;5612;51.134;17.058;2022-11-20T02:02:44;-3.90;99.90
2611;DHT22;5612;51.134;17.058;2022-11-20T02:05:18;-3.90;99.90
2611;DHT22;5612;51.134;17.058;2022-11-20T02:07:49;-3.90;99.90
2611;DHT22;5612;51.134;17.058;2022-11-20T02:10:18;-3.90;99.90
2611;DHT22;5612;51.134;17.058;2022-11-20T02:12:49;-3.90;99.90
2611;DHT22;5612;51.134;17.058;2022-11-20T02:15:35;-3.80;99.90
2611;DHT22;5612;51.134;17.058;2022-11-20T02:18:04;-3.80;99.90
2611;DHT22;5612;51.134;17.058;2022-11-20T02:20:33;-3.70;99.90
2611;DHT22;5612;51.134;17.058;2022-11-20T02:23:06;-3.60;99.90
2611;DHT22;5612;51.134;17.058;2022-11-20T02:25:38;-3.70;1.00
2611;DHT22;5612;51.134;17.058;2022-11-20T02:28:08;-3.70;44.00
2611;DHT22;5612;51.134;17.058;2022-11-20T02:30:37;-3.70;99.90
2611;DHT22;5612;51.134;17.058;2022-11-20T02:33:05;-3.80;34.50
2611;DHT22;5612;51.134;17.058;2022-11-20T02:35:42;-3.80;1.00
2611;DHT22;5612;51.134;17.058;2022-11-20T02:38:11;-3.70;1.00
2611;DHT22;5612;51.134;17.058;2022-11-20T02:40:43;-3.70;1.00
2611;DHT22;5612;51.134;17.058;2022-11-20T02:43:11;-3.70;1.00
2611;DHT22;5612;51.134;17.058;2022-11-20T02:45:40;-3.70;1.00
2611;DHT22;5612;51.134;17.058;2022-11-20T02:48:08;-3.60;99.90
2611;DHT22;5612;51.134;17.058;2022-11-20T02:50:38;-3.60;99.90
2611;DHT22;5612;51.134;17.058;2022-11-20T02:53:07;-3.70;99.90
2611;DHT22;5612;51.134;17.058;2022-11-20T02:55:36;-3.70;99.90
2611;DHT22;5612;51.134;17.058;2022-11-20T02:58:06;-3.80;1.00
2611;DHT22;5612;51.134;17.058;2022-11-20T03:00:35;-3.90;12.70
2611;DHT22;5612;51.134;17.058;2022-11-20T03:03:04;-4.00;99.90
2611;DHT22;5612;51.134;17.058;2022-11-20T03:05:32;-4.00;99.90
2611;DHT22;5612;51.134;17.058;2022-11-20T03:08:01;-4.00;99.90
2611;DHT22;5612;51.134;17.058;2022-11-20T03:10:30;-4.00;99.90
2611;DHT22;5612;51.134;17.058;2022-11-20T03:12:58;-3.80;99.90
2611;DHT22;5612;51.134;17.058;2022-11-20T03:15:29;-3.80;1.00
2611;DHT22;5612;51.134;17.058;2022-11-20T03:17:57;-3.80;1.00
2611;DHT22;5612;51.134;17.058;2022-11-20T03:20:26;-3.70;99.90
2611;DHT22;5612;51.134;17.058;2022-11-20T03:22:55;-3.70;99.90
2611;DHT22;5612;51.134;17.058;2022-11-20T03:25:23;-3.70;99.90
2611;DHT22;5612;51.134;17.058;2022-11-20T03:27:52;-3.90;1.00
2611;DHT22;5612;51.134;17.058;2022-11-20T03:30:21;-3.80;99.90
2611;DHT22;5612;51.134;17.058;2022-11-20T03:32:58;-3.80;99.90
2611;DHT22;5612;51.134;17.058;2022-11-20T03:35:26;-3.90;99.90
2611;DHT22;5612;51.134;17.058;2022-11-20T03:37:55;-3.90;99.90
2611;DHT22;5612;51.134;17.058;2022-11-20T03:40:25;-3.90;99.90
2611;DHT22;5612;51.134;17.058;2022-11-20T03:42:54;-3.90;99.90
2611;DHT22;5612;51.134;17.058;2022-11-20T03:45:22;-4.00;99.90
2611;DHT22;5612;51.134;17.058;2022-11-20T03:47:51;-4.00;99.90
2611;DHT22;5612;51.134;17.058;2022-11-20T03:50:21;-4.00;99.90
2611;DHT22;5612;51.134;17.058;2022-11-20T03:52:50;-3.90;99.90
2611;DHT22;5612;51.134;17.058;2022-11-20T03:55:18;-3.90;1.00
2611;DHT22;5612;51.134;17.058;2022-11-20T03:57:47;-3.90;1.00
2611;DHT22;5612;51.134;17.058;2022-11-20T04:00:16;-3.90;99.90
2611;DHT22;5612;51.134;17.058;2022-11-20T04:02:45;-3.90;99.90
2611;DHT22;5612;51.134;17.058;2022-11-20T04:05:13;-4.00;99.90
2611;DHT22;5612;51.134;17.058;2022-11-20T04:07:43;-4.00;99.90
2611;DHT22;5612;51.134;17.058;2022-11-20T04:10:12;-4.10;1.00
2611;DHT22;5612;51.134;17.058;2022-11-20T04:12:41;-4.10;1.00
2611;DHT22;5612;51.134;17.058;2022-11-20T04:15:09;-4.10;1.00
2611;DHT22;5612;51.134;17.058;2022-11-20T04:17:38;-4.10;99.90
2611;DHT22;5612;51.134;17.058;2022-11-20T04:20:07;-4.10;99.90
2611;DHT22;5612;51.134;17.058;2022-11-20T04:22:36;-4.10;99.90
2611;DHT22;5612;51.134;17.058;2022-11-20T04:25:07;-4.20;99.90
2611;DHT22;5612;51.134;17.058;2022-11-20T04:27:36;-4.20;99.90
2611;DHT22;5612;51.134;17.058;2022-11-20T04:30:06;-4.20;1.00
2611;DHT22;5612;51.134;17.058;2022-11-20T04:32:34;-4.20;99.90
2611;DHT22;5612;51.134;17.058;2022-11-20T04:35:03;-4.20;99.90
2611;DHT22;5612;51.134;17.058;2022-11-20T04:37:32;-4.20;1.00
2611;DHT22;5612;51.134;17.058;2022-11-20T04:40:01;-4.20;99.90
2611;DHT22;5612;51.134;17.058;2022-11-20T04:42:31;-4.20;99.90
2611;DHT22;5612;51.134;17.058;2022-11-20T04:45:00;-4.20;1.00
2611;DHT22;5612;51.134;17.058;2022-11-20T04:47:28;-4.20;99.90
2611;DHT22;5612;51.134;17.058;2022-11-20T04:49:57;-4.40;1.00
2611;DHT22;5612;51.134;17.058;2022-11-20T04:52:26;-4.30;1.00
2611;DHT22;5612;51.134;17.058;2022-11-20T04:54:54;-4.30;99.90
2611;DHT22;5612;51.134;17.058;2022-11-20T04:57:23;-4.30;99.90
2611;DHT22;5612;51.134;17.058;2022-11-20T04:59:53;-4.30;99.90
2611;DHT22;5612;51.134;17.058;2022-11-20T05:02:22;-4.40;1.00
2611;DHT22;5612;51.134;17.058;2022-11-20T05:04:51;-4.40;1.00
2611;DHT22;5612;51.134;17.058;2022-11-20T05:07:19;-4.40;99.90
2611;DHT22;5612;51.134;17.058;2022-11-20T05:09:48;-4.50;99.90
2611;DHT22;5612;51.134;17.058;2022-11-20T05:12:17;-4.50;99.90
2611;DHT22;5612;51.134;17.058;2022-11-20T05:14:45;-4.70;99.90
2611;DHT22;5612;51.134;17.058;2022-11-20T05:17:16;-4.70;99.90
2611;DHT22;5612;51.134;17.058;2022-11-20T05:19:44;-4.70;99.90
2611;DHT22;5612;51.134;17.058;2022-11-20T05:22:19;-4.70;99.90
2611;DHT22;5612;51.134;17.058;2022-11-20T05:24:47;-4.70;99.90
2611;DHT22;5612;51.134;17.058;2022-11-20T05:27:16;-4.70;99.90
2611;DHT22;5612;51.134;17.058;2022-11-20T05:29:45;-4.60;99.90
2611;DHT22;5612;51.134;17.058;2022-11-20T05:32:15;-4.60;99.90
2611;DHT22;5612;51.134;17.058;2022-11-20T05:34:44;-4.50;99.90
2611;DHT22;5612;51.134;17.058;2022-11-20T05:37:12;-4.50;99.90
2611;DHT22;5612;51.134;17.058;2022-11-20T05:39:41;-4.60;1.00
2611;DHT22;5612;51.134;17.058;2022-11-20T05:42:10;-4.70;14.70
2611;DHT22;5612;51.134;17.058;2022-11-20T05:44:56;-4.70;99.90
2611;DHT22;5612;51.134;17.058;2022-11-20T05:47:26;-4.70;99.90
2611;DHT22;5612;51.134;17.058;2022-11-20T05:49:56;-4.80;99.90
2611;DHT22;5612;51.134;17.058;2022-11-20T05:52:27;-4.70;99.90
2611;DHT22;5612;51.134;17.058;2022-11-20T05:54:56;-4.70;99.90
2611;DHT22;5612;51.134;17.058;2022-11-20T05:57:25;-4.70;99.90
2611;DHT22;5612;51.134;17.058;2022-11-20T05:59:53;-4.70;99.90
2611;DHT22;5612;51.134;17.058;2022-11-20T06:02:22;-4.70;99.90
2611;DHT22;5612;51.134;17.058;2022-11-20T06:04:52;-4.70;99.90
2611;DHT22;5612;51.134;17.058;2022-11-20T06:07:21;-4.80;99.90
2611;DHT22;5612;51.134;17.058;2022-11-20T06:09:50;-4.80;1.00
2611;DHT22;5612;51.134;17.058;2022-11-20T06:12:19;-4.70;1.00
2611;DHT22;5612;51.134;17.058;2022-11-20T06:14:47;-4.80;1.00
2611;DHT22;5612;51.134;17.058;2022-11-20T06:17:16;-4.90;1.00
2611;DHT22;5612;51.134;17.058;2022-11-20T06:19:45;-4.90;1.00
2611;DHT22;5612;51.134;17.058;2022-11-20T06:22:15;-4.80;1.00
2611;DHT22;5612;51.134;17.058;2022-11-20T06:24:44;-4.80;1.00
2611;DHT22;5612;51.134;17.058;2022-11-20T06:27:13;-4.80;1.00
2611;DHT22;5612;51.134;17.058;2022-11-20T06:29:41;-4.70;1.00
2611;DHT22;5612;51.134;17.058;2022-11-20T06:32:10;-4.80;1.00
2611;DHT22;5612;51.134;17.058;2022-11-20T06:34:39;-4.60;1.00
2611;DHT22;5612;51.134;17.058;2022-11-20T06:37:07;-4.60;99.90
2611;DHT22;5612;51.134;17.058;2022-11-20T06:39:38;-4.50;99.90
2611;DHT22;5612;51.134;17.058;2022-11-20T06:42:07;-4.50;99.90
2611;DHT22;5612;51.134;17.058;2022-11-20T06:44:35;-4.50;99.90
2611;DHT22;5612;51.134;17.058;2022-11-20T06:47:04;-4.60;99.90
2611;DHT22;5612;51.134;17.058;2022-11-20T06:49:33;-4.50;99.90
2611;DHT22;5612;51.134;17.058;2022-11-20T06:52:04;-4.30;99.90
2611;DHT22;5612;51.134;17.058;2022-11-20T06:54:33;-4.10;99.90
2611;DHT22;5612;51.134;17.058;2022-11-20T06:57:03;-3.80;1.00
2611;DHT22;5612;51.134;17.058;2022-11-20T06:59:31;-3.30;99.90
2611;DHT22;5612;51.134;17.058;2022-11-20T07:02:00;-3.00;99.90
2611;DHT22;5612;51.134;17.058;2022-11-20T07:04:29;-2.90;1.00
2611;DHT22;5612;51.134;17.058;2022-11-20T07:06:58;-2.60;1.00
2611;DHT22;5612;51.134;17.058;2022-11-20T07:09:26;-2.20;28.70
2611;DHT22;5612;51.134;17.058;2022-11-20T07:11:55;-1.70;99.90
2611;DHT22;5612;51.134;17.058;2022-11-20T07:14:25;-1.40;16.60
2611;DHT22;5612;51.134;17.058;2022-11-20T07:16:54;-1.20;99.90
2611;DHT22;5612;51.134;17.058;2022-11-20T07:19:23;-1.10;99.90
2611;DHT22;5612;51.134;17.058;2022-11-20T07:21:51;-1.30;99.90
2611;DHT22;5612;51.134;17.058;2022-11-20T07:24:20;-1.30;99.90
2611;DHT22;5612;51.134;17.058;2022-11-20T07:26:49;-1.40;92.40
2611;DHT22;5612;51.134;17.058;2022-11-20T07:29:18;-1.50;92.30
2611;DHT22;5612;51.134;17.058;2022-11-20T07:31:48;-1.70;98.80
2611;DHT22;5612;51.134;17.058;2022-11-20T07:34:17;-1.90;99.90
2611;DHT22;5612;51.134;17.058;2022-11-20T07:36:47;-1.80;99.90
2611;DHT22;5612;51.134;17.058;2022-11-20T07:39:16;-1.70;99.90
2611;DHT22;5612;51.134;17.058;2022-11-20T07:41:45;-1.60;99.90
2611;DHT22;5612;51.134;17.058;2022-11-20T07:44:14;-1.60;99.90
2611;DHT22;5612;51.134;17.058;2022-11-20T07:46:42;-1.50;99.90
2611;DHT22;5612;51.134;17.058;2022-11-20T07:49:12;-1.20;99.90
2611;DHT22;5612;51.134;17.058;2022-11-20T07:51:41;-0.90;91.50
2611;DHT22;5612;51.134;17.058;2022-11-20T07:54:10;-0.30;34.20
2611;DHT22;5612;51.134;17.058;2022-11-20T07:56:38;0.60;1.00
2611;DHT22;5612;51.134;17.058;2022-11-20T07:59:07;1.90;1.00
2611;DHT22;5612;51.134;17.058;2022-11-20T08:01:36;3.30;1.00
2611;DHT22;5612;51.134;17.058;2022-11-20T08:04:05;4.60;1.00
2611;DHT22;5612;51.134;17.058;2022-11-20T08:06:35;5.30;1.00
2611;DHT22;5612;51.134;17.058;2022-11-20T08:09:04;5.80;1.00
2611;DHT22;5612;51.134;17.058;2022-11-20T08:11:42;6.30;1.00
2611;DHT22;5612;51.134;17.058;2022-11-20T08:14:28;6.70;1.00
2611;DHT22;5612;51.134;17.058;2022-11-20T08:16:57;7.60;1.00
2611;DHT22;5612;51.134;17.058;2022-11-20T08:19:26;8.20;1.00
2611;DHT22;5612;51.134;17.058;2022-11-20T08:21:56;8.70;1.00
2611;DHT22;5612;51.134;17.058;2022-11-20T08:24:25;8.20;1.00
2611;DHT22;5612;51.134;17.058;2022-11-20T08:26:56;8.70;1.00
2611;DHT22;5612;51.134;17.058;2022-11-20T08:29:26;8.70;1.00
2611;DHT22;5612;51.134;17.058;2022-11-20T08:31:54;8.70;1.00
2611;DHT22;5612;51.134;17.058;2022-11-20T08:34:23;9.30;1.00
2611;DHT22;5612;51.134;17.058;2022-11-20T08:36:51;9.70;1.00
2611;DHT22;5612;51.134;17.058;2022-11-20T08:39:22;10.00;1.00
2611;DHT22;5612;51.134;17.058;2022-11-20T08:41:51;10.50;1.00
2611;DHT22;5612;51.134;17.058;2022-11-20T08:44:19;10.80;1.00
2611;DHT22;5612;51.134;17.058;2022-11-20T08:46:48;11.60;1.00
2611;DHT22;5612;51.134;17.058;2022-11-20T08:49:17;12.20;1.00
2611;DHT22;5612;51.134;17.058;2022-11-20T08:51:47;12.70;1.00
2611;DHT22;5612;51.134;17.058;2022-11-20T08:54:18;12.30;1.00
2611;DHT22;5612;51.134;17.058;2022-11-20T08:56:51;12.90;1.00
2611;DHT22;5612;51.134;17.058;2022-11-20T08:59:20;13.20;1.00
2611;DHT22;5612;51.134;17.058;2022-11-20T09:02:08;13.50;1.00
2611;DHT22;5612;51.134;17.058;2022-11-20T09:04:37;13.60;1.00
2611;DHT22;5612;51.134;17.058;2022-11-20T09:07:06;13.50;1.00
2611;DHT22;5612;51.134;17.058;2022-11-20T09:09:35;13.80;1.00
2611;DHT22;5612;51.134;17.058;2022-11-20T09:12:05;14.20;1.00
2611;DHT22;5612;51.134;17.058;2022-11-20T09:14:34;14.60;1.00
2611;DHT22;5612;51.134;17.058;2022-11-20T09:17:03;15.10;1.00
2611;DHT22;5612;51.134;17.058;2022-11-20T09:19:31;15.00;1.00
2611;DHT22;5612;51.134;17.058;2022-11-20T09:22:02;14.90;1.00
2611;DHT22;5612;51.134;17.058;2022-11-20T09:24:36;14.30;1.00
2611;DHT22;5612;51.134;17.058;2022-11-20T09:27:07;14.50;1.00
2611;DHT22;5612;51.134;17.058;2022-11-20T09:29:37;14.60;1.00
2611;DHT22;5612;51.134;17.058;2022-11-20T09:32:06;14.50;1.00
2611;DHT22;5612;51.134;17.058;2022-11-20T09:34:36;15.10;1.00
2611;DHT22;5612;51.134;17.058;2022-11-20T09:37:05;15.80;1.00
2611;DHT22;5612;51.134;17.058;2022-11-20T09:39:35;16.10;1.00
2611;DHT22;5612;51.134;17.058;2022-11-20T09:42:32;16.40;1.00
2611;DHT22;5612;51.134;17.058;2022-11-20T09:45:33;16.20;1.00
2611;DHT22;5612;51.134;17.058;2022-11-20T09:51:21;15.80;1.00
2611;DHT22;5612;51.134;17.058;2022-11-20T09:54:05;15.90;1.00
2611;DHT22;5612;51.134;17.058;2022-11-20T09:56:39;15.80;1.00
2611;DHT22;5612;51.134;17.058;2022-11-20T09:59:31;16.00;1.00
2611;DHT22;5612;51.134;17.058;2022-11-20T10:02:08;15.60;1.00
2611;DHT22;5612;51.134;17.058;2022-11-20T10:04:46;15.80;1.00
2611;DHT22;5612;51.134;17.058;2022-11-20T10:07:23;16.10;1.00
2611;DHT22;5612;51.134;17.058;2022-11-20T10:09:59;16.60;1.00
2611;DHT22;5612;51.134;17.058;2022-11-20T10:12:36;16.30;1.00
2611;DHT22;5612;51.134;17.058;2022-11-20T10:15:22;16.30;1.00
2611;DHT22;5612;51.134;17.058;2022-11-20T10:18:09;16.30;1.00
2611;DHT22;5612;51.134;17.058;2022-11-20T10:20:46;16.10;1.00
2611;DHT22;5612;51.134;17.058;2022-11-20T10:26:21;16.00;1.00
2611;DHT22;5612;51.134;17.058;2022-11-20T10:29:01;15.50;1.00
2611;DHT22;5612;51.134;17.058;2022-11-20T10:31:37;15.10;1.00
2611;DHT22;5612;51.134;17.058;2022-11-20T10:34:16;15.20;1.00
2611;DHT22;5612;51.134;17.058;2022-11-20T10:36:52;15.30;1.00
2611;DHT22;5612;51.134;17.058;2022-11-20T10:39:29;15.40;1.00
2611;DHT22;5612;51.134;17.058;2022-11-20T10:41:59;15.80;1.00
2611;DHT22;5612;51.134;17.058;2022-11-20T10:44:30;16.20;1.00
2611;DHT22;5612;51.134;17.058;2022-11-20T10:47:25;16.20;1.00
2611;DHT22;5612;51.134;17.058;2022-11-20T10:50:00;16.80;1.00
2611;DHT22;5612;51.134;17.058;2022-11-20T10:52:36;16.50;1.00
2611;DHT22;5612;51.134;17.058;2022-11-20T10:55:16;15.70;1.00
2611;DHT22;5612;51.134;17.058;2022-11-20T10:57:53;15.40;1.00
2611;DHT22;5612;51.134;17.058;2022-11-20T11:00:23;14.60;1.00
2611;DHT22;5612;51.134;17.058;2022-11-20T11:02:54;14.40;1.00
2611;DHT22;5612;51.134;17.058;2022-11-20T11:05:34;14.60;1.00
2611;DHT22;5612;51.134;17.058;2022-11-20T11:08:08;15.30;1.00
2611;DHT22;5612;51.134;17.058;2022-11-20T11:10:44;15.50;1.00
2611;DHT22;5612;51.134;17.058;2022-11-20T11:13:23;15.30;1.00
2611;DHT22;5612;51.134;17.058;2022-11-20T11:15:52;15.60;1.00
2611;DHT22;5612;51.134;17.058;2022-11-20T11:18:28;16.40;1.00
2611;DHT22;5612;51.134;17.058;2022-11-20T11:21:01;16.70;1.00
2611;DHT22;5612;51.134;17.058;2022-11-20T11:23:32;15.90;1.00
2611;DHT22;5612;51.134;17.058;2022-11-20T11:26:04;15.10;1.00
2611;DHT22;5612;51.134;17.058;2022-11-20T11:28:33;14.60;1.00
2611;DHT22;5612;51.134;17.058;2022-11-20T11:31:02;14.20;1.00
2611;DHT22;5612;51.134;17.058;2022-11-20T11:33:33;14.40;1.00
2611;DHT22;5612;51.134;17.058;2022-11-20T11:36:04;15.30;1.00
2611;DHT22;5612;51.134;17.058;2022-11-20T11:38:44;16.10;1.00
2611;DHT22;5612;51.134;17.058;2022-11-20T11:41:16;16.70;1.00
2611;DHT22;5612;51.134;17.058;2022-11-20T11:43:51;17.30;1.00
2611;DHT22;5612;51.134;17.058;2022-11-20T11:46:39;17.20;1.00
2611;DHT22;5612;51.134;17.058;2022-11-20T11:49:18;17.30;1.00
2611;DHT22;5612;51.134;17.058;2022-11-20T11:52:03;17.70;1.00
2611;DHT22;5612;51.134;17.058;2022-11-20T11:54:37;17.60;1.00
2611;DHT22;5612;51.134;17.058;2022-11-20T11:57:14;17.20;1.00
2611;DHT22;5612;51.134;17.058;2022-11-20T11:59:54;16.20;1.00
2611;DHT22;5612;51.134;17.058;2022-11-20T12:02:34;16.10;1.00
2611;DHT22;5612;51.134;17.058;2022-11-20T12:05:16;16.50;1.00
2611;DHT22;5612;51.134;17.058;2022-11-20T12:07:47;16.10;1.00
2611;DHT22;5612;51.134;17.058;2022-11-20T12:10:21;16.10;1.00
2611;DHT22;5612;51.134;17.058;2022-11-20T12:12:54;16.80;1.00
2611;DHT22;5612;51.134;17.058;2022-11-20T12:15:30;16.70;1.00
2611;DHT22;5612;51.134;17.058;2022-11-20T12:17:59;17.70;1.00
2611;DHT22;5612;51.134;17.058;2022-11-20T12:20:35;18.10;1.00
2611;DHT22;5612;51.134;17.058;2022-11-20T12:23:15;18.30;1.00
2611;DHT22;5612;51.134;17.058;2022-11-20T12:25:48;18.00;1.00
2611;DHT22;5612;51.134;17.058;2022-11-20T12:28:38;17.70;1.00
2611;DHT22;5612;51.134;17.058;2022-11-20T12:31:24;17.30;1.00
2611;DHT22;5612;51.134;17.058;2022-11-20T12:34:12;17.30;1.00
2611;DHT22;5612;51.134;17.058;2022-11-20T12:36:52;16.90;1.00
2611;DHT22;5612;51.134;17.058;2022-11-20T12:39:41;16.20;1.00
2611;DHT22;5612;51.134;17.058;2022-11-20T12:46:03;16.60;1.00
2611;DHT22;5612;51.134;17.058;2022-11-20T12:49:09;17.10;1.00
2611;DHT22;5612;51.134;17.058;2022-11-20T12:52:08;17.10;1.00
2611;DHT22;5612;51.134;17.058;2022-11-20T12:55:09;16.50;1.00
2611;DHT22;5612;51.134;17.058;2022-11-20T12:57:45;15.50;1.00
2611;DHT22;5612;51.134;17.058;2022-11-20T13:00:20;14.00;1.00
2611;DHT22;5612;51.134;17.058;2022-11-20T13:06:05;12.50;1.00
2611;DHT22;5612;51.134;17.058;2022-11-20T13:08:39;11.80;1.00
2611;DHT22;5612;51.134;17.058;2022-11-20T13:11:17;11.20;1.00
2611;DHT22;5612;51.134;17.058;2022-11-20T13:14:07;10.60;1.00
2611;DHT22;5612;51.134;17.058;2022-11-20T13:16:43;10.20;1.00
2611;DHT22;5612;51.134;17.058;2022-11-20T13:19:15;10.50;1.00
2611;DHT22;5612;51.134;17.058;2022-11-20T13:21:45;10.70;1.00
2611;DHT22;5612;51.134;17.058;2022-11-20T13:24:26;10.90;1.00
2611;DHT22;5612;51.134;17.058;2022-11-20T13:27:05;10.40;1.00
2611;DHT22;5612;51.134;17.058;2022-11-20T13:29:58;10.20;1.00
2611;DHT22;5612;51.134;17.058;2022-11-20T13:32:29;9.40;1.00
2611;DHT22;5612;51.134;17.058;2022-11-20T13:35:00;9.10;1.00
2611;DHT22;5612;51.134;17.058;2022-11-20T13:37:33;9.40;1.00
2611;DHT22;5612;51.134;17.058;2022-11-20T13:40:13;9.80;1.00
2611;DHT22;5612;51.134;17.058;2022-11-20T13:42:56;9.90;1.00
2611;DHT22;5612;51.134;17.058;2022-11-20T13:45:27;10.10;1.00
2611;DHT22;5612;51.134;17.058;2022-11-20T13:47:57;10.20;1.00
2611;DHT22;5612;51.134;17.058;2022-11-20T13:50:39;9.40;1.00
2611;DHT22;5612;51.134;17.058;2022-11-20T13:53:23;8.50;1.00
2611;DHT22;5612;51.134;17.058;2022-11-20T13:56:01;8.00;1.00
2611;DHT22;5612;51.134;17.058;2022-11-20T13:58:44;7.60;1.00
2611;DHT22;5612;51.134;17.058;2022-11-20T14:01:17;7.30;1.00
2611;DHT22;5612;51.134;17.058;2022-11-20T14:03:48;7.30;1.00
2611;DHT22;5612;51.134;17.058;2022-11-20T14:06:38;7.30;1.00
2611;DHT22;5612;51.134;17.058;2022-11-20T14:09:11;7.40;1.00
2611;DHT22;5612;51.134;17.058;2022-11-20T14:11:47;7.20;1.00
2611;DHT22;5612;51.134;17.058;2022-11-20T14:14:20;7.10;1.00
2611;DHT22;5612;51.134;17.058;2022-11-20T14:16:50;7.10;1.00
2611;DHT22;5612;51.134;17.058;2022-11-20T14:19:28;7.10;1.00
2611;DHT22;5612;51.134;17.058;2022-11-20T14:22:16;6.60;1.00
2611;DHT22;5612;51.134;17.058;2022-11-20T14:24:46;6.80;1.00
2611;DHT22;5612;51.134;17.058;2022-11-20T14:27:19;6.90;1.00
2611;DHT22;5612;51.134;17.058;2022-11-20T14:29:50;6.80;1.00
2611;DHT22;5612;51.134;17.058;2022-11-20T14:32:21;6.40;1.00
2611;DHT22;5612;51.134;17.058;2022-11-20T14:34:52;6.30;1.00
2611;DHT22;5612;51.134;17.058;2022-11-20T14:37:24;6.40;1.00
2611;DHT22;5612;51.134;17.058;2022-11-20T14:39:56;6.50;1.00
2611;DHT22;5612;51.134;17.058;2022-11-20T14:42:28;6.50;1.00
2611;DHT22;5612;51.134;17.058;2022-11-20T14:44:59;6.50;1.00
2611;DHT22;5612;51.134;17.058;2022-11-20T14:47:31;6.40;1.00
2611;DHT22;5612;51.134;17.058;2022-11-20T14:50:13;6.20;1.00
2611;DHT22;5612;51.134;17.058;2022-11-20T14:52:51;6.00;1.00
2611;DHT22;5612;51.134;17.058;2022-11-20T14:55:30;5.50;1.00
2611;DHT22;5612;51.134;17.058;2022-11-20T14:58:02;5.10;1.00
2611;DHT22;5612;51.134;17.058;2022-11-20T15:00:33;4.80;1.00
2611;DHT22;5612;51.134;17.058;2022-11-20T15:03:03;4.40;1.00
2611;DHT22;5612;51.134;17.058;2022-11-20T15:05:47;4.30;1.00
2611;DHT22;5612;51.134;17.058;2022-11-20T15:08:17;4.20;1.00
2611;DHT22;5612;51.134;17.058;2022-11-20T15:10:47;4.10;1.00
2611;DHT22;5612;51.134;17.058;2022-11-20T15:13:25;4.00;1.00
2611;DHT22;5612;51.134;17.058;2022-11-20T15:15:57;4.10;1.00
2611;DHT22;5612;51.134;17.058;2022-11-20T15:18:29;4.00;1.00
2611;DHT22;5612;51.134;17.058;2022-11-20T15:21:01;4.00;1.00
2611;DHT22;5612;51.134;17.058;2022-11-20T15:23:32;3.90;1.00
2611;DHT22;5612;51.134;17.058;2022-11-20T15:26:01;3.70;1.00
2611;DHT22;5612;51.134;17.058;2022-11-20T15:28:33;3.60;1.00
2611;DHT22;5612;51.134;17.058;2022-11-20T15:31:03;3.60;1.00
2611;DHT22;5612;51.134;17.058;2022-11-20T15:33:34;3.50;1.00
2611;DHT22;5612;51.134;17.058;2022-11-20T15:36:04;3.60;1.00
2611;DHT22;5612;51.134;17.058;2022-11-20T15:38:33;3.50;1.00
2611;DHT22;5612;51.134;17.058;2022-11-20T15:41:02;3.50;1.00
2611;DHT22;5612;51.134;17.058;2022-11-20T15:43:34;3.40;1.00
2611;DHT22;5612;51.134;17.058;2022-11-20T15:46:04;3.30;1.00
2611;DHT22;5612;51.134;17.058;2022-11-20T15:48:38;3.20;1.00
2611;DHT22;5612;51.134;17.058;2022-11-20T15:51:21;3.20;1.00
2611;DHT22;5612;51.134;17.058;2022-11-20T15:53:52;3.10;1.00
2611;DHT22;5612;51.134;17.058;2022-11-20T15:56:24;3.00;1.00
2611;DHT22;5612;51.134;17.058;2022-11-20T15:58:55;2.90;1.00
2611;DHT22;5612;51.134;17.058;2022-11-20T16:01:25;2.90;1.00
2611;DHT22;5612;51.134;17.058;2022-11-20T16:03:54;2.70;1.00
2611;DHT22;5612;51.134;17.058;2022-11-20T16:06:23;2.60;1.00
2611;DHT22;5612;51.134;17.058;2022-11-20T16:08:51;2.60;1.00
2611;DHT22;5612;51.134;17.058;2022-11-20T16:11:21;2.40;1.00
2611;DHT22;5612;51.134;17.058;2022-11-20T16:13:50;2.20;1.00
2611;DHT22;5612;51.134;17.058;2022-11-20T16:16:38;2.10;1.00
2611;DHT22;5612;51.134;17.058;2022-11-20T16:19:10;2.00;1.00
2611;DHT22;5612;51.134;17.058;2022-11-20T16:21:40;1.90;1.00
2611;DHT22;5612;51.134;17.058;2022-11-20T16:24:11;2.00;1.00
2611;DHT22;5612;51.134;17.058;2022-11-20T16:26:42;1.90;1.00
2611;DHT22;5612;51.134;17.058;2022-11-20T16:29:11;2.00;1.00
2611;DHT22;5612;51.134;17.058;2022-11-20T16:31:42;1.90;1.00
2611;DHT22;5612;51.134;17.058;2022-11-20T16:34:11;1.80;1.00
2611;DHT22;5612;51.134;17.058;2022-11-20T16:36:40;1.90;1.00
2611;DHT22;5612;51.134;17.058;2022-11-20T16:39:12;1.90;1.00
2611;DHT22;5612;51.134;17.058;2022-11-20T16:41:50;1.80;1.00
2611;DHT22;5612;51.134;17.058;2022-11-20T16:44:19;1.80;1.00